RJEC(METAR)
05/26 18:00
METAR RJEC 260900Z 34004KT 9999 FEW025 BKN/// 16/11 Q1006 RMK 1CU025
A2972=
戻る
トップページへ戻る
IMOC Co,.Ltd.